Time;durP1;ratioP1;P1;durP2;ratioP2;P2;SDS_P1;SDS_P2;PMS_P1;PMS_P2;Temp;Humidity;BMP_temperature;BMP_pressure;BME280_temperature;BME280_humidity;BME280_pressure;Samples;Min_cycle;Max_cycle;Signal;HPM_P1;HPM_P2
2022/12/11 00:02:20;;;;;;;56.88;20.35;;;;;;;;;;6170366;23;20489;-87
2022/12/11 00:04:46;;;;;;;50.05;17.67;;;;;;;;;;6167852;23;20149;-87
2022/12/11 00:07:12;;;;;;;71.90;22.27;;;;;;;;;;6168681;23;20231;-86
2022/12/11 00:09:38;;;;;;;53.47;18.93;;;;;;;;;;6157826;23;20430;-86
2022/12/11 00:12:06;;;;;;;59.25;20.58;;;;;;;;;;6160050;23;20396;-85
2022/12/11 00:14:32;;;;;;;51.08;21.23;;;;;;;;;;6166408;23;20305;-84
2022/12/11 00:16:58;;;;;;;70.13;22.67;;;;;;;;;;6169131;23;20252;-85
2022/12/11 00:19:24;;;;;;;56.03;19.47;;;;;;;;;;6157142;23;20153;-85
2022/12/11 00:21:50;;;;;;;62.50;21.80;;;;;;;;;;6152995;23;20388;-86
2022/12/11 00:24:16;;;;;;;66.75;21.95;;;;;;;;;;6158780;23;20372;-86
2022/12/11 00:26:42;;;;;;;52.60;20.15;;;;;;;;;;6167321;23;20175;-86
2022/12/11 00:31:43;;;;;;;70.60;23.85;;;;;;;;;;6209276;23;20199;-87
2022/12/11 00:34:10;;;;;;;67.82;23.92;;;;;;;;;;6208058;23;20152;-87
2022/12/11 00:36:40;;;;;;;69.03;22.65;;;;;;;;;;6198303;23;20170;-87
2022/12/11 00:39:06;;;;;;;76.25;22.67;;;;;;;;;;6194687;23;20216;-87
2022/12/11 00:41:35;;;;;;;75.32;23.75;;;;;;;;;;6189149;23;20206;-87
2022/12/11 00:44:01;;;;;;;66.38;23.45;;;;;;;;;;6193487;23;20183;-85
2022/12/11 00:46:28;;;;;;;74.40;24.63;;;;;;;;;;6187134;23;20175;-87
2022/12/11 00:48:54;;;;;;;73.10;28.13;;;;;;;;;;6184780;23;20381;-86
2022/12/11 00:51:20;;;;;;;81.93;25.90;;;;;;;;;;6185813;23;20151;-85
2022/12/11 00:53:46;;;;;;;66.57;23.40;;;;;;;;;;6175943;23;20206;-85
2022/12/11 00:56:14;;;;;;;67.03;22.63;;;;;;;;;;6179719;23;20522;-85
2022/12/11 00:58:40;;;;;;;68.55;23.70;;;;;;;;;;6175662;23;20160;-85
2022/12/11 01:01:07;;;;;;;45.30;18.38;;;;;;;;;;6177768;23;20159;-85
2022/12/11 01:03:33;;;;;;;72.35;23.08;;;;;;;;;;6173884;23;20219;-85
2022/12/11 01:05:59;;;;;;;68.57;23.23;;;;;;;;;;6179312;23;20190;-85
2022/12/11 01:08:25;;;;;;;60.03;24.97;;;;;;;;;;6176130;23;20387;-85
2022/12/11 01:10:51;;;;;;;76.53;20.65;;;;;;;;;;6187328;23;20454;-85
2022/12/11 01:13:17;;;;;;;60.20;18.50;;;;;;;;;;6182035;23;20148;-85
2022/12/11 01:15:45;;;;;;;70.70;22.27;;;;;;;;;;6184351;23;20163;-85
2022/12/11 01:18:12;;;;;;;65.95;24.08;;;;;;;;;;6178588;23;20704;-85
2022/12/11 01:20:39;;;;;;;70.72;23.92;;;;;;;;;;6183716;23;20576;-86
2022/12/11 01:23:05;;;;;;;70.85;27.02;;;;;;;;;;6181236;23;20157;-85
2022/12/11 01:25:32;;;;;;;78.30;27.20;;;;;;;;;;6181496;23;20163;-83
2022/12/11 01:27:58;;;;;;;78.25;25.15;;;;;;;;;;6175090;23;20160;-85
2022/12/11 01:30:25;;;;;;;67.13;24.73;;;;;;;;;;6185635;23;20219;-84
2022/12/11 01:32:51;;;;;;;61.88;21.33;;;;;;;;;;6180734;23;20803;-85
2022/12/11 01:35:18;;;;;;;56.28;20.70;;;;;;;;;;6185037;23;20152;-85
2022/12/11 01:37:44;;;;;;;67.25;22.35;;;;;;;;;;6161166;23;20167;-83
2022/12/11 01:40:12;;;;;;;78.68;24.45;;;;;;;;;;6168473;23;20178;-86
2022/12/11 01:42:38;;;;;;;85.75;26.60;;;;;;;;;;6158382;23;20742;-85
2022/12/11 01:45:21;;;;;;;65.93;22.15;;;;;;;;;;6196407;23;20162;-86
2022/12/11 01:47:48;;;;;;;69.65;23.90;;;;;;;;;;6185978;23;20222;-84
2022/12/11 01:50:15;;;;;;;53.50;21.02;;;;;;;;;;6193626;23;20176;-86
2022/12/11 01:52:42;;;;;;;102.70;25.13;;;;;;;;;;6195224;23;20179;-87
2022/12/11 01:55:11;;;;;;;93.03;28.02;;;;;;;;;;6192133;23;20156;-84
2022/12/11 01:57:40;;;;;;;73.65;23.80;;;;;;;;;;6191069;23;20156;-86
2022/12/11 02:00:07;;;;;;;80.82;26.02;;;;;;;;;;6194648;23;20207;-87
2022/12/11 02:02:34;;;;;;;87.05;27.40;;;;;;;;;;6202635;23;20729;-87
2022/12/11 02:05:05;;;;;;;89.63;27.02;;;;;;;;;;6207309;23;20167;-87
2022/12/11 02:07:36;;;;;;;65.30;23.17;;;;;;;;;;6197843;23;20231;-86
2022/12/11 02:10:02;;;;;;;63.25;22.00;;;;;;;;;;6189603;23;20191;-87
2022/12/11 02:12:36;;;;;;;59.92;18.98;;;;;;;;;;6196956;23;20148;-87
2022/12/11 02:15:02;;;;;;;59.30;21.38;;;;;;;;;;6198497;23;20133;-87
2022/12/11 02:17:28;;;;;;;65.53;21.10;;;;;;;;;;6196745;23;20167;-88
2022/12/11 02:20:02;;;;;;;67.55;22.17;;;;;;;;;;6171419;23;20472;-87
2022/12/11 02:22:47;;;;;;;55.03;21.90;;;;;;;;;;6197776;23;20144;-87
2022/12/11 02:25:31;;;;;;;61.95;20.35;;;;;;;;;;6172616;23;20160;-88
2022/12/11 02:28:06;;;;;;;57.55;19.58;;;;;;;;;;6199479;23;20162;-88
2022/12/11 02:30:34;;;;;;;40.42;17.65;;;;;;;;;;6199381;23;20190;-88
2022/12/11 02:33:01;;;;;;;46.97;18.08;;;;;;;;;;6189111;23;20153;-85
2022/12/11 02:35:32;;;;;;;51.05;18.00;;;;;;;;;;6180436;23;20129;-85
2022/12/11 02:38:01;;;;;;;42.88;18.15;;;;;;;;;;6175440;23;20619;-84
2022/12/11 02:40:29;;;;;;;40.13;15.38;;;;;;;;;;6177437;23;20585;-87
2022/12/11 02:42:57;;;;;;;63.08;19.20;;;;;;;;;;6174102;23;21049;-85
2022/12/11 02:45:23;;;;;;;52.75;18.50;;;;;;;;;;6178769;23;20597;-86
2022/12/11 02:47:50;;;;;;;39.08;14.60;;;;;;;;;;6149770;23;20486;-85
2022/12/11 02:50:19;;;;;;;33.92;12.25;;;;;;;;;;6183146;23;20173;-86
2022/12/11 02:52:46;;;;;;;45.65;18.15;;;;;;;;;;6180322;23;20231;-85
2022/12/11 02:55:14;;;;;;;54.88;16.90;;;;;;;;;;6180573;23;20156;-84
2022/12/11 02:57:56;;;;;;;58.30;21.23;;;;;;;;;;6173572;23;20549;-84
2022/12/11 03:00:22;;;;;;;45.10;17.63;;;;;;;;;;6176064;23;20159;-86
2022/12/11 03:02:48;;;;;;;45.97;19.40;;;;;;;;;;6173516;23;20700;-85
2022/12/11 03:05:14;;;;;;;43.30;19.00;;;;;;;;;;6178284;23;20148;-85
2022/12/11 03:07:42;;;;;;;49.25;16.27;;;;;;;;;;6173519;23;20160;-84
2022/12/11 03:10:11;;;;;;;47.72;18.67;;;;;;;;;;6173163;23;20226;-85
2022/12/11 03:12:38;;;;;;;52.88;18.63;;;;;;;;;;6177954;23;20148;-85
2022/12/11 03:15:06;;;;;;;46.50;18.88;;;;;;;;;;6149781;23;20159;-85
2022/12/11 03:17:38;;;;;;;48.25;18.38;;;;;;;;;;6171419;23;20606;-85
2022/12/11 03:20:15;;;;;;;47.60;19.42;;;;;;;;;;6175406;23;20443;-84
2022/12/11 03:22:49;;;;;;;47.40;18.25;;;;;;;;;;6177048;23;20128;-85
2022/12/11 03:25:18;;;;;;;48.75;19.42;;;;;;;;;;6176288;23;20171;-86
2022/12/11 03:27:48;;;;;;;50.03;19.27;;;;;;;;;;6193850;23;20148;-84
2022/12/11 03:30:16;;;;;;;48.13;20.55;;;;;;;;;;6193923;23;20176;-84
2022/12/11 03:32:51;;;;;;;47.38;20.20;;;;;;;;;;6198748;23;20199;-83
2022/12/11 03:35:20;;;;;;;42.97;18.27;;;;;;;;;;6183253;23;20473;-83
2022/12/11 03:37:47;;;;;;;46.63;19.83;;;;;;;;;;6189727;23;20392;-84
2022/12/11 03:40:15;;;;;;;38.15;14.73;;;;;;;;;;6191600;23;20483;-84
2022/12/11 03:42:43;;;;;;;53.38;21.52;;;;;;;;;;6186921;23;20179;-84
2022/12/11 03:45:10;;;;;;;59.22;19.88;;;;;;;;;;6159546;23;20207;-85
2022/12/11 03:47:37;;;;;;;47.45;18.92;;;;;;;;;;6182324;23;20159;-86
2022/12/11 03:50:06;;;;;;;49.50;19.67;;;;;;;;;;6191995;23;20182;-86
2022/12/11 03:52:32;;;;;;;44.42;20.05;;;;;;;;;;6170660;23;20163;-86
2022/12/11 03:55:00;;;;;;;41.75;15.77;;;;;;;;;;6198665;23;20144;-86
2022/12/11 03:57:29;;;;;;;52.28;18.27;;;;;;;;;;6190766;23;20594;-87
2022/12/11 03:59:55;;;;;;;49.10;21.35;;;;;;;;;;6193713;23;20620;-87
2022/12/11 04:02:21;;;;;;;43.63;17.95;;;;;;;;;;6188342;23;20162;-87
2022/12/11 04:04:47;;;;;;;37.77;16.20;;;;;;;;;;6192822;23;20151;-87
2022/12/11 04:07:13;;;;;;;48.07;17.90;;;;;;;;;;6191898;23;20689;-86
2022/12/11 04:09:39;;;;;;;41.90;17.75;;;;;;;;;;6194812;23;20429;-86
2022/12/11 04:12:05;;;;;;;48.30;19.63;;;;;;;;;;6184808;23;20610;-85
2022/12/11 04:24:13;;;;;;;52.38;18.13;;;;;;;;;;6177343;23;20171;-85
2022/12/11 04:25:32;;;;;;;50.78;18.08;;;;;;;;;;6174681;23;20381;-85
2022/12/11 04:27:58;;;;;;;39.15;17.35;;;;;;;;;;6177485;23;20152;-85
2022/12/11 04:30:25;;;;;;;40.88;16.33;;;;;;;;;;6174362;23;20222;-86
2022/12/11 04:32:52;;;;;;;42.53;19.02;;;;;;;;;;6184401;23;20163;-85
2022/12/11 04:35:18;;;;;;;36.53;16.02;;;;;;;;;;6184022;23;20774;-84
2022/12/11 04:37:44;;;;;;;40.22;17.90;;;;;;;;;;6187398;23;20179;-84
2022/12/11 04:40:12;;;;;;;43.47;18.00;;;;;;;;;;6180488;23;20219;-84
2022/12/11 04:42:38;;;;;;;40.72;16.38;;;;;;;;;;6181484;23;20152;-85
2022/12/11 04:45:04;;;;;;;33.63;15.95;;;;;;;;;;6178842;23;20219;-85
2022/12/11 04:47:30;;;;;;;42.88;17.45;;;;;;;;;;6183270;23;20154;-85
2022/12/11 04:49:56;;;;;;;43.93;18.33;;;;;;;;;;6178799;23;20211;-85
2022/12/11 04:52:22;;;;;;;32.90;15.60;;;;;;;;;;6181509;23;20372;-84
2022/12/11 04:54:50;;;;;;;39.00;17.80;;;;;;;;;;6178047;23;20502;-85
2022/12/11 04:57:16;;;;;;;37.58;17.00;;;;;;;;;;6181306;23;20387;-85
2022/12/11 04:59:42;;;;;;;44.80;16.90;;;;;;;;;;6178216;23;20168;-85
2022/12/11 05:02:08;;;;;;;37.53;16.63;;;;;;;;;;6180944;23;20162;-84
2022/12/11 05:04:34;;;;;;;40.30;17.50;;;;;;;;;;6151106;23;20251;-84
2022/12/11 05:07:01;;;;;;;37.60;17.13;;;;;;;;;;6180562;23;20470;-84
2022/12/11 05:09:27;;;;;;;48.40;19.27;;;;;;;;;;6172607;23;20175;-84
2022/12/11 05:11:53;;;;;;;42.65;18.48;;;;;;;;;;6177601;23;20148;-83
2022/12/11 05:14:20;;;;;;;46.97;17.73;;;;;;;;;;6172032;23;20504;-83
2022/12/11 05:16:46;;;;;;;52.65;19.80;;;;;;;;;;6149415;23;20626;-84
2022/12/11 05:19:12;;;;;;;42.40;16.40;;;;;;;;;;6172717;23;20190;-84
2022/12/11 05:21:41;;;;;;;35.22;15.95;;;;;;;;;;6150459;23;20395;-84
2022/12/11 05:24:07;;;;;;;33.90;17.20;;;;;;;;;;6175389;23;20163;-83
2022/12/11 05:26:33;;;;;;;40.47;18.80;;;;;;;;;;6176676;23;20160;-83
2022/12/11 05:28:59;;;;;;;47.72;19.30;;;;;;;;;;6145469;23;20179;-82
2022/12/11 05:31:26;;;;;;;58.17;18.92;;;;;;;;;;6176147;23;20227;-82
2022/12/11 05:33:52;;;;;;;44.05;18.67;;;;;;;;;;6171759;23;20479;-82
2022/12/11 05:36:20;;;;;;;38.20;17.33;;;;;;;;;;6176100;23;20184;-83
2022/12/11 05:38:46;;;;;;;44.42;18.80;;;;;;;;;;6145665;23;20594;-83
2022/12/11 05:41:13;;;;;;;47.15;18.83;;;;;;;;;;6177979;23;20159;-82
2022/12/11 05:43:39;;;;;;;48.58;20.15;;;;;;;;;;6157641;23;20160;-84
2022/12/11 05:46:07;;;;;;;47.50;21.07;;;;;;;;;;6181516;23;20219;-85
2022/12/11 05:48:33;;;;;;;43.40;16.38;;;;;;;;;;6170983;23;20367;-84
2022/12/11 05:51:00;;;;;;;36.95;16.73;;;;;;;;;;6174756;23;20175;-84
2022/12/11 05:53:26;;;;;;;54.90;20.67;;;;;;;;;;6147051;23;20179;-85
2022/12/11 05:55:52;;;;;;;43.00;17.70;;;;;;;;;;6177129;23;20128;-84
2022/12/11 05:58:18;;;;;;;46.47;20.37;;;;;;;;;;6171989;23;20350;-82
2022/12/11 06:00:45;;;;;;;42.58;18.85;;;;;;;;;;6149180;23;20381;-83
2022/12/11 06:03:11;;;;;;;53.15;19.40;;;;;;;;;;6172649;23;20152;-84
2022/12/11 06:05:37;;;;;;;38.28;19.88;;;;;;;;;;6176161;23;20155;-84
2022/12/11 06:08:03;;;;;;;40.15;19.25;;;;;;;;;;6173525;23;20629;-85
2022/12/11 06:10:29;;;;;;;51.25;19.92;;;;;;;;;;6171340;23;20187;-84
2022/12/11 06:12:55;;;;;;;41.38;19.20;;;;;;;;;;6180076;23;20156;-83
2022/12/11 06:15:21;;;;;;;40.50;16.20;;;;;;;;;;6191839;23;20171;-84
2022/12/11 06:17:47;;;;;;;46.03;21.20;;;;;;;;;;6198289;23;20367;-86
2022/12/11 06:20:13;;;;;;;52.23;22.63;;;;;;;;;;6200219;23;20344;-85
2022/12/11 06:22:40;;;;;;;41.25;19.60;;;;;;;;;;6198527;23;20637;-85
2022/12/11 06:25:06;;;;;;;43.03;21.02;;;;;;;;;;6201188;23;20144;-85
2022/12/11 06:27:35;;;;;;;52.00;22.50;;;;;;;;;;6196514;23;20159;-86
2022/12/11 06:30:01;;;;;;;52.13;18.65;;;;;;;;;;6196507;23;20188;-84
2022/12/11 06:32:27;;;;;;;47.65;20.45;;;;;;;;;;6198798;23;20178;-85
2022/12/11 06:34:53;;;;;;;45.20;20.77;;;;;;;;;;6203794;23;20152;-85
2022/12/11 06:37:19;;;;;;;46.93;18.97;;;;;;;;;;6200562;23;20144;-85
2022/12/11 06:39:45;;;;;;;46.90;19.27;;;;;;;;;;6173200;23;20491;-85
2022/12/11 06:42:15;;;;;;;51.50;20.83;;;;;;;;;;6189802;23;20160;-84
2022/12/11 06:44:41;;;;;;;57.38;21.02;;;;;;;;;;6186803;23;20166;-83
2022/12/11 06:47:07;;;;;;;38.05;18.63;;;;;;;;;;6171925;23;20218;-83
2022/12/11 06:49:33;;;;;;;50.70;18.98;;;;;;;;;;6175910;23;20194;-83
2022/12/11 06:51:59;;;;;;;46.15;18.70;;;;;;;;;;6175608;23;20231;-83
2022/12/11 06:54:26;;;;;;;46.37;19.10;;;;;;;;;;6172573;23;20257;-84
2022/12/11 06:56:52;;;;;;;39.95;16.25;;;;;;;;;;6177007;23;20352;-84
2022/12/11 06:59:18;;;;;;;41.95;19.48;;;;;;;;;;6173439;23;20230;-83
2022/12/11 07:01:44;;;;;;;52.67;19.63;;;;;;;;;;6181331;23;20227;-83
2022/12/11 07:04:10;;;;;;;36.88;16.17;;;;;;;;;;6184606;23;20155;-84
2022/12/11 07:06:37;;;;;;;46.05;18.83;;;;;;;;;;6191984;23;20128;-84
2022/12/11 07:09:04;;;;;;;38.88;17.70;;;;;;;;;;6181681;23;20152;-84
2022/12/11 07:11:30;;;;;;;51.17;19.83;;;;;;;;;;6176033;23;20629;-83
2022/12/11 07:13:59;;;;;;;41.03;19.35;;;;;;;;;;6177810;23;20148;-86
2022/12/11 07:16:26;;;;;;;42.85;18.70;;;;;;;;;;6182786;23;20162;-84
2022/12/11 07:18:52;;;;;;;38.13;18.25;;;;;;;;;;6176596;23;20152;-84
2022/12/11 07:21:18;;;;;;;39.03;17.92;;;;;;;;;;6179922;23;20156;-84
2022/12/11 07:23:45;;;;;;;35.95;18.52;;;;;;;;;;6175298;23;20155;-84
2022/12/11 07:26:12;;;;;;;49.35;18.80;;;;;;;;;;6179306;23;20276;-82
2022/12/11 07:28:39;;;;;;;39.92;16.75;;;;;;;;;;6174165;23;20168;-83
2022/12/11 07:31:09;;;;;;;46.35;18.88;;;;;;;;;;6179309;23;20271;-83
2022/12/11 07:33:35;;;;;;;43.63;19.08;;;;;;;;;;6177591;23;20156;-82
2022/12/11 07:36:06;;;;;;;42.78;18.20;;;;;;;;;;6192659;23;20378;-83
2022/12/11 07:38:32;;;;;;;44.15;17.30;;;;;;;;;;6186277;23;20159;-84
2022/12/11 07:41:01;;;;;;;42.07;20.40;;;;;;;;;;6178862;23;20211;-84
2022/12/11 07:43:27;;;;;;;37.05;19.55;;;;;;;;;;6173881;23;20860;-83
2022/12/11 07:45:53;;;;;;;32.22;16.35;;;;;;;;;;6150666;23;20175;-82
2022/12/11 07:48:19;;;;;;;38.97;17.60;;;;;;;;;;6173826;23;20521;-81
2022/12/11 07:50:45;;;;;;;45.55;18.85;;;;;;;;;;6177095;23;20492;-84
2022/12/11 07:53:11;;;;;;;38.83;18.50;;;;;;;;;;6170473;23;20160;-83
2022/12/11 07:55:37;;;;;;;46.72;19.73;;;;;;;;;;6177288;23;20356;-82
2022/12/11 07:58:04;;;;;;;44.72;19.08;;;;;;;;;;6173631;23;20633;-81
2022/12/11 08:00:30;;;;;;;41.15;18.60;;;;;;;;;;6177192;23;20188;-81
2022/12/11 08:02:56;;;;;;;38.10;20.23;;;;;;;;;;6174026;23;20578;-82
2022/12/11 08:05:22;;;;;;;34.13;17.80;;;;;;;;;;6176681;23;20458;-81
2022/12/11 08:07:48;;;;;;;37.70;17.67;;;;;;;;;;6173783;23;20230;-82
2022/12/11 08:10:14;;;;;;;50.03;18.70;;;;;;;;;;6148594;23;20187;-82
2022/12/11 08:12:40;;;;;;;45.25;19.23;;;;;;;;;;6173759;23;20219;-82
2022/12/11 08:15:09;;;;;;;41.78;17.95;;;;;;;;;;6150884;23;20494;-84
2022/12/11 08:17:35;;;;;;;35.92;18.35;;;;;;;;;;6177116;23;20144;-82
2022/12/11 08:20:01;;;;;;;47.90;20.40;;;;;;;;;;6173986;23;20804;-82
2022/12/11 08:22:27;;;;;;;45.33;17.53;;;;;;;;;;6174596;23;20175;-83
2022/12/11 08:24:53;;;;;;;42.88;18.70;;;;;;;;;;6177564;23;20376;-82
2022/12/11 08:27:19;;;;;;;33.97;16.30;;;;;;;;;;6147388;23;20184;-81
2022/12/11 08:29:46;;;;;;;42.63;17.85;;;;;;;;;;6176843;23;20195;-81
2022/12/11 08:32:14;;;;;;;43.05;19.10;;;;;;;;;;6190764;23;20187;-87
2022/12/11 08:34:40;;;;;;;43.63;19.17;;;;;;;;;;6178163;23;20163;-80
2022/12/11 08:37:06;;;;;;;50.80;17.58;;;;;;;;;;6173927;23;20490;-83
2022/12/11 08:39:32;;;;;;;45.80;19.50;;;;;;;;;;6177094;23;20389;-82
2022/12/11 08:41:58;;;;;;;44.60;19.52;;;;;;;;;;6172683;23;20492;-82
2022/12/11 08:44:25;;;;;;;36.45;17.52;;;;;;;;;;6177313;23;20182;-82
2022/12/11 08:46:52;;;;;;;45.15;19.48;;;;;;;;;;6146642;23;20164;-82
2022/12/11 08:49:20;;;;;;;44.25;18.23;;;;;;;;;;6150416;23;20530;-82
2022/12/11 08:51:49;;;;;;;40.17;19.10;;;;;;;;;;6181952;23;20152;-83
2022/12/11 08:54:18;;;;;;;44.35;18.60;;;;;;;;;;6179967;23;20176;-81
2022/12/11 08:56:47;;;;;;;47.88;20.98;;;;;;;;;;6149003;23;20170;-82
2022/12/11 08:59:13;;;;;;;42.03;18.95;;;;;;;;;;6144639;23;20235;-82
2022/12/11 09:01:41;;;;;;;43.03;19.88;;;;;;;;;;6175996;23;20148;-82
2022/12/11 09:04:07;;;;;;;44.30;20.13;;;;;;;;;;6173987;23;20148;-81
2022/12/11 09:06:41;;;;;;;43.13;19.80;;;;;;;;;;6149601;23;20568;-80
2022/12/11 09:09:07;;;;;;;37.55;19.30;;;;;;;;;;6168317;23;20223;-81
2022/12/11 09:11:36;;;;;;;41.20;18.98;;;;;;;;;;6177003;23;20148;-81
2022/12/11 09:14:03;;;;;;;38.00;18.25;;;;;;;;;;6146655;23;20156;-80
2022/12/11 09:16:36;;;;;;;36.78;15.20;;;;;;;;;;6161357;23;20248;-85
2022/12/11 09:19:06;;;;;;;40.35;18.85;;;;;;;;;;6152419;23;20148;-84
2022/12/11 09:21:35;;;;;;;36.88;20.00;;;;;;;;;;6184222;23;20152;-82
2022/12/11 09:24:02;;;;;;;44.13;18.52;;;;;;;;;;6180347;23;20128;-83
2022/12/11 09:26:29;;;;;;;41.80;20.55;;;;;;;;;;6179570;23;20498;-82
2022/12/11 09:28:56;;;;;;;37.65;18.30;;;;;;;;;;6157460;23;20191;-81
2022/12/11 09:31:33;;;;;;;40.97;19.92;;;;;;;;;;6168321;23;20347;-83
2022/12/11 09:34:00;;;;;;;41.63;19.58;;;;;;;;;;6174455;23;20409;-82
2022/12/11 09:36:27;;;;;;;35.63;16.80;;;;;;;;;;6155970;23;20616;-84
2022/12/11 09:38:56;;;;;;;49.60;21.98;;;;;;;;;;6177600;23;20187;-84
2022/12/11 09:41:22;;;;;;;36.28;19.13;;;;;;;;;;6156766;23;20144;-80
2022/12/11 09:44:07;;;;;;;43.92;20.02;;;;;;;;;;6173524;23;20246;-79
2022/12/11 09:46:34;;;;;;;32.00;16.30;;;;;;;;;;6149325;23;20540;-81
2022/12/11 09:49:10;;;;;;;37.25;19.30;;;;;;;;;;6171122;23;20183;-81
2022/12/11 09:51:40;;;;;;;35.63;19.05;;;;;;;;;;6172915;23;20454;-81
2022/12/11 09:54:10;;;;;;;31.85;18.10;;;;;;;;;;6176690;23;20984;-82
2022/12/11 09:56:42;;;;;;;27.63;15.30;;;;;;;;;;6144041;23;20163;-81
2022/12/11 09:59:08;;;;;;;37.72;17.55;;;;;;;;;;6146001;23;20559;-80
2022/12/11 10:01:39;;;;;;;35.90;16.97;;;;;;;;;;6149704;23;20191;-81
2022/12/11 10:04:29;;;;;;;36.92;17.85;;;;;;;;;;6146125;23;20428;-81
2022/12/11 10:07:06;;;;;;;25.48;15.60;;;;;;;;;;6176540;23;20133;-81
2022/12/11 10:09:40;;;;;;;33.55;18.40;;;;;;;;;;6166881;23;20171;-82
2022/12/11 10:12:18;;;;;;;33.38;17.20;;;;;;;;;;6151217;23;20220;-80
2022/12/11 10:14:59;;;;;;;28.75;17.30;;;;;;;;;;6171217;23;20152;-80
2022/12/11 10:17:30;;;;;;;39.45;16.65;;;;;;;;;;6149999;23;20159;-81
2022/12/11 10:19:58;;;;;;;32.00;17.83;;;;;;;;;;6172160;23;20234;-82
2022/12/11 10:22:25;;;;;;;39.25;19.88;;;;;;;;;;6176981;23;20256;-80
2022/12/11 10:25:07;;;;;;;37.88;18.67;;;;;;;;;;6173154;23;20832;-81
2022/12/11 10:27:34;;;;;;;37.35;19.67;;;;;;;;;;6184557;23;20156;-80
2022/12/11 10:30:07;;;;;;;34.65;18.35;;;;;;;;;;6183925;23;20864;-81
2022/12/11 10:32:56;;;;;;;33.85;17.30;;;;;;;;;;6191297;23;20145;-82
2022/12/11 10:35:30;;;;;;;33.85;16.90;;;;;;;;;;6156625;23;20156;-81
2022/12/11 10:38:17;;;;;;;29.80;16.10;;;;;;;;;;6177235;23;20266;-80
2022/12/11 10:40:49;;;;;;;28.05;15.30;;;;;;;;;;6147073;23;20159;-80
2022/12/11 10:43:15;;;;;;;33.53;17.00;;;;;;;;;;6176268;23;20582;-81
2022/12/11 10:45:49;;;;;;;34.58;16.55;;;;;;;;;;6144039;23;20159;-82
2022/12/11 10:48:15;;;;;;;27.90;15.45;;;;;;;;;;6176335;23;20462;-82
2022/12/11 10:50:43;;;;;;;34.22;17.58;;;;;;;;;;6146615;23;20190;-81
2022/12/11 10:53:19;;;;;;;31.27;13.85;;;;;;;;;;6176218;23;20156;-83
2022/12/11 10:55:47;;;;;;;24.95;13.68;;;;;;;;;;6172424;23;20151;-83
2022/12/11 10:58:23;;;;;;;33.88;16.30;;;;;;;;;;6175695;23;20214;-83
2022/12/11 11:01:04;;;;;;;35.47;17.25;;;;;;;;;;6176078;23;20562;-82
2022/12/11 11:03:31;;;;;;;37.38;19.10;;;;;;;;;;6144909;23;20601;-81
2022/12/11 11:06:14;;;;;;;34.28;17.55;;;;;;;;;;6149362;23;20140;-81
2022/12/11 11:08:44;;;;;;;30.33;16.38;;;;;;;;;;6147722;23;20151;-82
2022/12/11 11:11:35;;;;;;;35.97;16.67;;;;;;;;;;6149598;23;20168;-82
2022/12/11 11:14:13;;;;;;;34.60;17.83;;;;;;;;;;6154704;23;20164;-81
2022/12/11 11:16:40;;;;;;;23.55;14.68;;;;;;;;;;6149122;23;20154;-82
2022/12/11 11:19:06;;;;;;;39.30;16.40;;;;;;;;;;6172709;23;20487;-82
2022/12/11 11:21:34;;;;;;;29.10;14.63;;;;;;;;;;6141023;23;20168;-82
2022/12/11 11:24:00;;;;;;;33.17;16.42;;;;;;;;;;6140056;23;20222;-80
2022/12/11 11:26:26;;;;;;;34.85;16.88;;;;;;;;;;6181831;23;20159;-79
2022/12/11 11:28:53;;;;;;;32.33;16.35;;;;;;;;;;6146174;23;20175;-80
2022/12/11 11:31:21;;;;;;;28.48;14.98;;;;;;;;;;6149988;23;20196;-81
2022/12/11 11:33:47;;;;;;;33.78;18.23;;;;;;;;;;6172953;23;20159;-80
2022/12/11 11:36:20;;;;;;;33.50;17.30;;;;;;;;;;6176438;23;20543;-81
2022/12/11 11:39:07;;;;;;;25.73;14.38;;;;;;;;;;6171641;23;20379;-80
2022/12/11 11:41:53;;;;;;;28.60;12.85;;;;;;;;;;6174543;23;20179;-82
2022/12/11 11:44:37;;;;;;;29.10;15.18;;;;;;;;;;6145068;23;20160;-81
2022/12/11 11:47:08;;;;;;;28.85;16.20;;;;;;;;;;6174482;23;20132;-80
2022/12/11 11:50:04;;;;;;;27.75;15.35;;;;;;;;;;6171616;23;20172;-81
2022/12/11 11:52:35;;;;;;;28.33;15.48;;;;;;;;;;6145658;23;20343;-81
2022/12/11 11:55:19;;;;;;;26.52;15.43;;;;;;;;;;6147510;23;20165;-81
2022/12/11 11:57:49;;;;;;;23.52;14.95;;;;;;;;;;6179489;23;20151;-81
2022/12/11 12:00:15;;;;;;;30.20;13.77;;;;;;;;;;6151745;23;20471;-81
2022/12/11 12:02:41;;;;;;;24.20;14.68;;;;;;;;;;6151792;23;20171;-80
2022/12/11 12:05:15;;;;;;;23.00;14.68;;;;;;;;;;6146281;23;20168;-82
2022/12/11 12:07:46;;;;;;;22.60;15.15;;;;;;;;;;6152315;23;20148;-82
2022/12/11 12:10:16;;;;;;;24.92;11.80;;;;;;;;;;6151219;23;20247;-82
2022/12/11 12:13:06;;;;;;;26.98;14.48;;;;;;;;;;6178855;23;20152;-85
2022/12/11 12:15:43;;;;;;;26.38;14.90;;;;;;;;;;6176911;23;20141;-84
2022/12/11 12:18:28;;;;;;;27.60;15.60;;;;;;;;;;6184224;23;20132;-85
2022/12/11 12:20:57;;;;;;;28.75;14.63;;;;;;;;;;6164874;23;20168;-84
2022/12/11 12:23:40;;;;;;;23.98;13.43;;;;;;;;;;6155983;23;20152;-83
2022/12/11 12:26:25;;;;;;;34.35;16.45;;;;;;;;;;6153059;23;20487;-83
2022/12/11 12:28:54;;;;;;;24.05;15.18;;;;;;;;;;6156276;23;20175;-81
2022/12/11 12:31:37;;;;;;;28.45;14.68;;;;;;;;;;6156820;23;20191;-83
2022/12/11 12:34:06;;;;;;;29.30;14.02;;;;;;;;;;6154155;23;20157;-82
2022/12/11 12:36:35;;;;;;;29.50;16.15;;;;;;;;;;6177713;23;20152;-83
2022/12/11 12:39:05;;;;;;;34.63;15.82;;;;;;;;;;6174963;23;20159;-81
2022/12/11 12:41:50;;;;;;;31.02;15.10;;;;;;;;;;6176706;23;20709;-83
2022/12/11 12:44:17;;;;;;;31.50;15.13;;;;;;;;;;6173577;23;20149;-83
2022/12/11 12:46:46;;;;;;;30.00;15.50;;;;;;;;;;6180036;23;20449;-83
2022/12/11 12:49:16;;;;;;;31.65;17.30;;;;;;;;;;6174245;23;20149;-82
2022/12/11 12:51:43;;;;;;;23.92;14.07;;;;;;;;;;6152868;23;20536;-83
2022/12/11 12:54:11;;;;;;;25.40;15.57;;;;;;;;;;6146548;23;20313;-80
2022/12/11 12:56:39;;;;;;;27.15;14.77;;;;;;;;;;6176796;23;20464;-80
2022/12/11 12:59:21;;;;;;;25.63;15.82;;;;;;;;;;6146986;23;20272;-81
2022/12/11 13:01:51;;;;;;;28.58;15.00;;;;;;;;;;6149038;23;20149;-80
2022/12/11 13:04:35;;;;;;;26.15;13.60;;;;;;;;;;6171315;23;20238;-82
2022/12/11 13:07:13;;;;;;;33.08;15.77;;;;;;;;;;6151739;23;20239;-81
2022/12/11 13:09:39;;;;;;;28.20;15.45;;;;;;;;;;6144282;23;20358;-80
2022/12/11 13:12:12;;;;;;;24.08;15.43;;;;;;;;;;6148901;23;20885;-81
2022/12/11 13:14:40;;;;;;;25.33;14.18;;;;;;;;;;6173884;23;20139;-80
2022/12/11 13:17:21;;;;;;;37.30;15.65;;;;;;;;;;6149179;23;20195;-79
2022/12/11 13:19:48;;;;;;;34.97;16.73;;;;;;;;;;6176673;23;20191;-78
2022/12/11 13:22:24;;;;;;;24.65;16.23;;;;;;;;;;6174990;23;20175;-81
2022/12/11 13:25:01;;;;;;;22.85;14.38;;;;;;;;;;6149353;23;20165;-81
2022/12/11 13:27:29;;;;;;;24.50;13.73;;;;;;;;;;6146615;23;20160;-80
2022/12/11 13:30:06;;;;;;;29.98;16.48;;;;;;;;;;6149227;23;20249;-82
2022/12/11 13:32:32;;;;;;;34.78;18.00;;;;;;;;;;6146190;23;20152;-82
2022/12/11 13:35:07;;;;;;;28.67;16.15;;;;;;;;;;6175406;23;20162;-81
2022/12/11 13:37:40;;;;;;;28.08;16.25;;;;;;;;;;6145274;23;20566;-80
2022/12/11 13:40:08;;;;;;;32.35;17.35;;;;;;;;;;6150129;23;20194;-80
2022/12/11 13:42:43;;;;;;;32.33;16.48;;;;;;;;;;6145146;23;20165;-81
2022/12/11 13:45:57;;;;;;;30.40;15.60;;;;;;;;;;6176731;23;20144;-81
2022/12/11 13:48:37;;;;;;;30.85;16.10;;;;;;;;;;6175789;23;20170;-79
2022/12/11 13:51:05;;;;;;;29.98;15.65;;;;;;;;;;6176267;23;20235;-80
2022/12/11 13:53:31;;;;;;;29.40;15.00;;;;;;;;;;6171725;23;20160;-80
2022/12/11 13:55:58;;;;;;;29.55;18.08;;;;;;;;;;6149307;23;20160;-80
2022/12/11 13:58:25;;;;;;;32.83;15.75;;;;;;;;;;6145531;23;20166;-79
2022/12/11 14:01:06;;;;;;;33.03;18.45;;;;;;;;;;6174743;23;20235;-79
2022/12/11 14:03:33;;;;;;;34.25;18.00;;;;;;;;;;6171407;23;20172;-80
2022/12/11 14:06:00;;;;;;;35.20;19.35;;;;;;;;;;6174614;23;20148;-79
2022/12/11 14:08:30;;;;;;;28.90;17.05;;;;;;;;;;6145413;23;20251;-79
2022/12/11 14:10:56;;;;;;;35.65;16.83;;;;;;;;;;6169357;23;20175;-78
2022/12/11 14:13:40;;;;;;;26.10;14.07;;;;;;;;;;6169508;23;20215;-80
2022/12/11 14:16:19;;;;;;;35.95;17.38;;;;;;;;;;6172534;23;20386;-78
2022/12/11 14:18:45;;;;;;;31.02;18.38;;;;;;;;;;6147489;23;20247;-79
2022/12/11 14:21:26;;;;;;;32.42;16.88;;;;;;;;;;6144436;23;20167;-81
2022/12/11 14:23:54;;;;;;;32.33;16.52;;;;;;;;;;6150867;23;20572;-81
2022/12/11 14:26:22;;;;;;;28.85;15.45;;;;;;;;;;6172203;23;20163;-80
2022/12/11 14:28:48;;;;;;;29.88;17.73;;;;;;;;;;6175312;23;20169;-81
2022/12/11 14:31:25;;;;;;;34.28;17.42;;;;;;;;;;6171597;23;20194;-80
2022/12/11 14:34:02;;;;;;;31.00;14.43;;;;;;;;;;6139456;23;20242;-85
2022/12/11 14:36:31;;;;;;;32.58;16.67;;;;;;;;;;6149724;23;20151;-81
2022/12/11 14:39:18;;;;;;;33.63;17.92;;;;;;;;;;6144664;23;20167;-80
2022/12/11 14:41:54;;;;;;;36.63;17.77;;;;;;;;;;6148004;23;20148;-79